Time;durP1;ratioP1;P1;durP2;ratioP2;P2;SDS_P1;SDS_P2;PMS_P1;PMS_P2;Temp;Humidity;BMP_temperature;BMP_pressure;BME280_temperature;BME280_humidity;BME280_pressure;Samples;Min_cycle;Max_cycle;Signal;HPM_P1;HPM_P2
2023/07/01 00:02:12;;;;;;;6.22;2.15;;;23.10;84.10;;;;;;5016338;28;20495;-68
2023/07/01 00:04:38;;;;;;;4.30;2.38;;;23.10;84.30;;;;;;5031043;28;20017;-68
2023/07/01 00:07:04;;;;;;;4.68;2.13;;;23.10;84.60;;;;;;5030945;28;20025;-66
2023/07/01 00:09:30;;;;;;;7.20;2.45;;;23.00;84.30;;;;;;5028399;28;20046;-66
2023/07/01 00:11:55;;;;;;;6.32;2.00;;;23.00;84.50;;;;;;5030635;28;20531;-65
2023/07/01 00:14:21;;;;;;;5.03;2.08;;;23.00;84.90;;;;;;5032084;28;20530;-71
2023/07/01 00:16:47;;;;;;;4.45;2.10;;;23.00;84.80;;;;;;5032782;28;20029;-66
2023/07/01 00:19:12;;;;;;;6.63;2.58;;;23.00;85.10;;;;;;5017506;28;20038;-65
2023/07/01 00:21:38;;;;;;;4.35;2.20;;;22.90;85.30;;;;;;5025596;28;20026;-66
2023/07/01 00:24:04;;;;;;;8.25;2.25;;;22.90;85.60;;;;;;5027390;28;20014;-66
2023/07/01 00:26:30;;;;;;;6.05;2.45;;;22.90;85.20;;;;;;5013833;28;20028;-64
2023/07/01 00:28:56;;;;;;;5.65;2.30;;;22.90;85.50;;;;;;5024436;28;20108;-65
2023/07/01 00:31:21;;;;;;;5.15;2.08;;;22.80;85.40;;;;;;5022609;28;20034;-67
2023/07/01 00:33:47;;;;;;;4.45;1.98;;;22.90;86.40;;;;;;5023810;28;20108;-66
2023/07/01 00:36:13;;;;;;;4.13;1.98;;;22.90;86.30;;;;;;5019069;28;20106;-68
2023/07/01 00:38:38;;;;;;;4.82;1.73;;;22.80;86.50;;;;;;5022388;28;20026;-67
2023/07/01 00:41:04;;;;;;;3.90;1.63;;;22.80;86.40;;;;;;5023306;28;20443;-66
2023/07/01 00:43:29;;;;;;;7.00;2.28;;;22.70;86.50;;;;;;5026126;28;20040;-65
2023/07/01 00:45:55;;;;;;;4.43;1.85;;;22.80;86.50;;;;;;5029781;28;20029;-67
2023/07/01 00:48:25;;;;;;;3.67;1.90;;;22.80;86.50;;;;;;5032061;28;20028;-68
2023/07/01 00:50:52;;;;;;;4.70;2.10;;;22.80;86.60;;;;;;5031261;28;20026;-66
2023/07/01 00:53:18;;;;;;;3.72;2.00;;;22.70;86.90;;;;;;5031701;28;20022;-71
2023/07/01 00:55:44;;;;;;;4.78;2.40;;;22.70;87.30;;;;;;5031841;28;20029;-71
2023/07/01 00:58:10;;;;;;;5.03;1.95;;;22.60;87.80;;;;;;5035769;28;20517;-71
2023/07/01 01:00:35;;;;;;;5.97;2.20;;;22.70;87.90;;;;;;5035952;28;20025;-70
2023/07/01 01:03:30;;;;;;;6.03;2.08;;;22.70;88.30;;;;;;5036132;28;20077;-70
2023/07/01 01:06:33;;;;;;;4.53;1.63;;;22.60;88.30;;;;;;5036145;28;20032;-65
2023/07/01 01:09:10;;;;;;;4.60;2.15;;;22.60;88.30;;;;;;5032860;28;20115;-68
2023/07/01 01:11:40;;;;;;;6.60;2.33;;;22.60;89.00;;;;;;5035904;28;20112;-69
2023/07/01 01:14:11;;;;;;;4.28;1.95;;;22.50;89.00;;;;;;5034539;28;20025;-66
2023/07/01 01:16:39;;;;;;;4.78;2.50;;;22.50;89.20;;;;;;5035602;28;20433;-68
2023/07/01 01:19:19;;;;;;;7.63;1.92;;;22.50;88.90;;;;;;5035795;28;20021;-66
2023/07/01 01:21:51;;;;;;;5.82;1.60;;;22.50;89.30;;;;;;5035783;28;20028;-69
2023/07/01 01:24:20;;;;;;;4.78;1.90;;;22.50;89.40;;;;;;5035010;28;20524;-67
2023/07/01 01:26:50;;;;;;;4.68;1.98;;;22.50;89.70;;;;;;5035247;28;20462;-72
2023/07/01 01:29:16;;;;;;;6.18;1.85;;;22.50;89.90;;;;;;5035689;28;20440;-64
2023/07/01 01:31:41;;;;;;;4.10;2.13;;;22.40;90.20;;;;;;5034171;28;20467;-68
2023/07/01 01:34:07;;;;;;;4.55;2.30;;;22.40;90.20;;;;;;5035240;28;20386;-67
2023/07/01 01:36:40;;;;;;;7.78;2.17;;;22.40;90.20;;;;;;5033932;28;20379;-71
2023/07/01 01:39:08;;;;;;;3.33;1.77;;;22.40;90.30;;;;;;5034896;28;20029;-71
2023/07/01 01:41:38;;;;;;;4.70;1.90;;;22.30;90.70;;;;;;5026819;28;20034;-70
2023/07/01 01:44:10;;;;;;;5.50;1.60;;;22.30;90.80;;;;;;5030487;28;20099;-65
2023/07/01 01:46:37;;;;;;;12.90;2.30;;;22.30;91.00;;;;;;5029392;28;20025;-65
2023/07/01 01:49:04;;;;;;;6.05;1.90;;;22.30;91.70;;;;;;5016302;28;20033;-65
2023/07/01 01:51:31;;;;;;;5.57;2.15;;;22.30;91.70;;;;;;5027439;28;20491;-68
2023/07/01 01:53:58;;;;;;;3.40;1.90;;;22.30;91.80;;;;;;5026297;28;20025;-64
2023/07/01 01:56:26;;;;;;;3.03;2.03;;;22.30;92.20;;;;;;5022632;28;20061;-63
2023/07/01 01:58:52;;;;;;;2.97;2.20;;;22.30;92.20;;;;;;5024994;28;20021;-62
2023/07/01 02:01:17;;;;;;;5.22;1.77;;;22.30;92.20;;;;;;5022559;28;20052;-65
2023/07/01 02:03:45;;;;;;;3.85;1.50;;;22.30;92.60;;;;;;5031522;28;20493;-65
2023/07/01 02:06:10;;;;;;;8.27;1.90;;;22.20;92.90;;;;;;5028471;28;20033;-66
2023/07/01 02:08:36;;;;;;;3.35;1.55;;;22.20;93.20;;;;;;5016621;28;20076;-66
2023/07/01 02:11:01;;;;;;;4.35;1.52;;;22.20;93.20;;;;;;5023886;28;20032;-65
2023/07/01 02:13:27;;;;;;;4.75;2.20;;;22.20;93.40;;;;;;5023428;28;20549;-68
2023/07/01 02:15:53;;;;;;;2.88;1.73;;;22.20;93.70;;;;;;5034373;28;20045;-66
2023/07/01 02:18:18;;;;;;;3.83;1.60;;;22.10;93.70;;;;;;5022509;28;20401;-64
2023/07/01 02:20:44;;;;;;;3.00;1.45;;;22.10;93.60;;;;;;5023809;28;20418;-66
2023/07/01 02:23:10;;;;;;;2.92;1.80;;;22.10;93.90;;;;;;5031928;28;20033;-65
2023/07/01 02:25:35;;;;;;;3.45;2.00;;;22.10;93.80;;;;;;5033355;28;20017;-65
2023/07/01 02:28:01;;;;;;;2.35;1.45;;;22.10;93.60;;;;;;5033019;28;20028;-67
2023/07/01 02:30:27;;;;;;;2.80;1.58;;;22.10;93.80;;;;;;5032584;28;20022;-72
2023/07/01 02:32:52;;;;;;;3.47;1.92;;;22.10;93.70;;;;;;5033080;28;20108;-65
2023/07/01 02:35:18;;;;;;;3.80;1.90;;;22.10;93.80;;;;;;5034312;28;20429;-65
2023/07/01 02:37:43;;;;;;;3.65;1.73;;;22.10;93.90;;;;;;5033712;28;20036;-65
2023/07/01 02:40:09;;;;;;;2.13;1.48;;;22.00;93.90;;;;;;5034126;28;20030;-67
2023/07/01 02:42:35;;;;;;;3.78;2.17;;;22.00;94.10;;;;;;5034019;28;20042;-68
2023/07/01 02:45:00;;;;;;;2.90;1.25;;;22.00;93.90;;;;;;5034172;28;20017;-66
2023/07/01 02:47:26;;;;;;;2.45;1.75;;;22.00;93.70;;;;;;5033966;28;20493;-65
2023/07/01 02:49:51;;;;;;;2.35;1.50;;;22.00;94.00;;;;;;5034082;28;20401;-65
2023/07/01 02:52:17;;;;;;;4.30;1.55;;;22.00;93.80;;;;;;5033613;28;20486;-66
2023/07/01 02:54:42;;;;;;;4.90;1.48;;;22.00;94.00;;;;;;5033986;28;20502;-65
2023/07/01 02:57:09;;;;;;;4.47;1.40;;;22.00;93.80;;;;;;5033484;28;20030;-65
2023/07/01 02:59:35;;;;;;;2.15;1.20;;;22.00;94.00;;;;;;5033896;28;20022;-67
2023/07/01 03:02:02;;;;;;;2.00;1.10;;;22.00;94.10;;;;;;5033747;28;20386;-69
2023/07/01 03:04:27;;;;;;;2.28;1.00;;;21.90;94.30;;;;;;5033799;28;20025;-64
2023/07/01 03:06:53;;;;;;;3.10;1.42;;;21.90;94.40;;;;;;5033379;28;20482;-69
2023/07/01 03:09:19;;;;;;;3.72;1.45;;;21.90;94.30;;;;;;5033705;28;20036;-72
2023/07/01 03:11:44;;;;;;;2.63;1.13;;;21.90;94.30;;;;;;5033522;28;20382;-64
2023/07/01 03:14:12;;;;;;;3.53;1.52;;;21.90;94.30;;;;;;5033778;28;20029;-65
2023/07/01 03:16:38;;;;;;;3.08;1.40;;;21.90;94.50;;;;;;5033611;28;20056;-65
2023/07/01 03:19:05;;;;;;;2.08;1.40;;;21.90;94.40;;;;;;5033139;28;20474;-65
2023/07/01 03:21:31;;;;;;;3.50;1.42;;;21.80;94.50;;;;;;5033306;28;20096;-65
2023/07/01 03:23:56;;;;;;;1.33;1.05;;;21.80;94.50;;;;;;5032812;28;20053;-64
2023/07/01 03:26:22;;;;;;;2.80;1.50;;;21.80;94.60;;;;;;5033171;28;20056;-65
2023/07/01 03:28:47;;;;;;;3.90;1.35;;;21.80;94.70;;;;;;5031207;28;20093;-67
2023/07/01 03:31:13;;;;;;;2.17;1.38;;;21.80;94.70;;;;;;5033130;28;20044;-66
2023/07/01 03:33:38;;;;;;;2.05;1.20;;;21.70;94.80;;;;;;5033040;28;20109;-65
2023/07/01 03:36:04;;;;;;;3.92;1.58;;;21.70;94.80;;;;;;5033014;28;20037;-65
2023/07/01 03:38:29;;;;;;;2.15;1.10;;;21.70;94.90;;;;;;5033213;28;20025;-65
2023/07/01 03:40:55;;;;;;;1.60;1.08;;;21.70;95.00;;;;;;5033255;28;20037;-68
2023/07/01 03:43:21;;;;;;;4.30;1.77;;;21.70;94.90;;;;;;5033094;28;20509;-72
2023/07/01 03:45:46;;;;;;;2.15;1.52;;;21.70;95.10;;;;;;5033125;28;20526;-71
2023/07/01 03:48:12;;;;;;;1.90;1.25;;;21.70;95.40;;;;;;5033095;28;20038;-69
2023/07/01 03:50:37;;;;;;;1.75;1.30;;;21.70;95.50;;;;;;5032884;28;20026;-71
2023/07/01 03:53:03;;;;;;;2.58;1.60;;;21.60;95.50;;;;;;5032924;28;20052;-69
2023/07/01 03:55:28;;;;;;;2.45;1.35;;;21.60;95.60;;;;;;5033111;28;20086;-73
2023/07/01 03:57:54;;;;;;;2.55;1.33;;;21.60;95.80;;;;;;5033073;28;20029;-72
2023/07/01 04:00:21;;;;;;;1.80;1.30;;;21.60;95.80;;;;;;5032949;28;20111;-70
2023/07/01 04:02:50;;;;;;;3.10;1.10;;;21.60;95.80;;;;;;5032248;28;20049;-65
2023/07/01 04:05:16;;;;;;;2.92;1.13;;;21.60;95.90;;;;;;5032277;28;20029;-67
2023/07/01 04:07:44;;;;;;;1.60;1.20;;;21.60;96.10;;;;;;5032648;28;20010;-72
2023/07/01 04:10:11;;;;;;;3.10;1.27;;;21.60;96.20;;;;;;5032711;28;20052;-65
2023/07/01 04:12:37;;;;;;;4.85;1.38;;;21.50;96.10;;;;;;5032968;28;20025;-70
2023/07/01 04:15:10;;;;;;;2.08;1.23;;;21.60;96.20;;;;;;5032727;28;20053;-70
2023/07/01 04:17:39;;;;;;;3.00;1.25;;;21.50;96.30;;;;;;5032696;28;20033;-67
2023/07/01 04:20:06;;;;;;;1.80;1.23;;;21.50;96.40;;;;;;5032739;28;20029;-70
2023/07/01 04:22:32;;;;;;;3.70;1.20;;;21.50;96.40;;;;;;5032919;28;20030;-69
2023/07/01 04:24:57;;;;;;;2.83;1.40;;;21.50;96.30;;;;;;5031446;28;20020;-66
2023/07/01 04:27:23;;;;;;;1.50;1.08;;;21.50;96.40;;;;;;5032855;28;20025;-66
2023/07/01 04:29:48;;;;;;;1.15;0.95;;;21.50;96.50;;;;;;5031222;28;20045;-66
2023/07/01 04:32:14;;;;;;;3.00;0.85;;;21.50;96.50;;;;;;5034681;28;20091;-66
2023/07/01 04:34:39;;;;;;;2.67;1.20;;;21.50;96.70;;;;;;5036675;28;20022;-66
2023/07/01 04:37:05;;;;;;;1.20;0.73;;;21.50;96.30;;;;;;5036496;28;20033;-65
2023/07/01 04:39:30;;;;;;;2.72;1.30;;;21.50;96.60;;;;;;5035078;28;20542;-66
2023/07/01 04:41:56;;;;;;;2.50;1.05;;;21.50;96.70;;;;;;5036245;28;20046;-69
2023/07/01 04:44:24;;;;;;;3.45;0.70;;;21.40;96.70;;;;;;5036036;28;20052;-65
2023/07/01 04:46:50;;;;;;;1.15;0.70;;;21.40;96.40;;;;;;5036083;28;20539;-65
2023/07/01 04:49:15;;;;;;;1.33;0.60;;;21.40;96.70;;;;;;5036192;28;20025;-73
2023/07/01 04:51:41;;;;;;;1.65;0.52;;;21.40;96.80;;;;;;5036317;28;20025;-65
2023/07/01 04:54:07;;;;;;;2.88;0.85;;;21.40;96.80;;;;;;5035915;28;20051;-68
2023/07/01 04:56:32;;;;;;;0.70;0.40;;;21.40;96.70;;;;;;5036101;28;20524;-64
2023/07/01 04:58:58;;;;;;;1.45;0.85;;;21.40;96.80;;;;;;5036039;28;20032;-64
2023/07/01 05:01:23;;;;;;;1.95;0.70;;;21.40;97.00;;;;;;5035709;28;20034;-67
2023/07/01 05:03:49;;;;;;;1.55;0.75;;;21.40;96.90;;;;;;5035936;28;20099;-65
2023/07/01 05:06:15;;;;;;;1.05;0.73;;;21.40;97.00;;;;;;5035804;28;20092;-65
2023/07/01 05:08:40;;;;;;;2.63;0.77;;;21.40;97.00;;;;;;5036001;28;20022;-65
2023/07/01 05:11:06;;;;;;;3.08;0.77;;;21.40;97.10;;;;;;5035550;28;20097;-67
2023/07/01 05:13:31;;;;;;;0.80;0.60;;;21.40;97.00;;;;;;5035816;28;20055;-68
2023/07/01 05:15:57;;;;;;;2.08;0.52;;;21.40;97.20;;;;;;5035335;28;20026;-64
2023/07/01 05:18:23;;;;;;;0.98;0.52;;;21.40;97.20;;;;;;5035732;28;20104;-70
2023/07/01 05:20:48;;;;;;;1.05;0.50;;;21.40;97.20;;;;;;5035492;28;20100;-65
2023/07/01 05:23:14;;;;;;;1.88;0.63;;;21.30;97.30;;;;;;5035586;28;20064;-68
2023/07/01 05:25:40;;;;;;;1.52;0.70;;;21.30;97.50;;;;;;5035441;28;20063;-69
2023/07/01 05:28:06;;;;;;;2.28;1.02;;;21.40;97.60;;;;;;5035444;28;20030;-69
2023/07/01 05:30:31;;;;;;;2.42;0.93;;;21.30;97.60;;;;;;5035220;28;20021;-71
2023/07/01 05:32:57;;;;;;;3.92;1.27;;;21.30;97.60;;;;;;5035359;28;20029;-70
2023/07/01 05:35:23;;;;;;;0.95;0.60;;;21.30;97.80;;;;;;5035377;28;20048;-68
2023/07/01 05:37:48;;;;;;;2.38;1.00;;;21.30;97.80;;;;;;5035427;28;20029;-66
2023/07/01 05:40:14;;;;;;;1.70;0.98;;;21.30;97.80;;;;;;5035143;28;20040;-65
2023/07/01 05:42:39;;;;;;;3.10;1.08;;;21.30;97.80;;;;;;5035026;28;20044;-65
2023/07/01 05:45:06;;;;;;;1.50;1.10;;;21.30;97.80;;;;;;5034829;28;20096;-66
2023/07/01 05:47:32;;;;;;;1.30;1.02;;;21.30;97.90;;;;;;5034076;28;20053;-66
2023/07/01 05:49:58;;;;;;;3.63;1.52;;;21.30;97.90;;;;;;5035237;28;20100;-66
2023/07/01 05:52:23;;;;;;;1.92;1.30;;;21.30;98.10;;;;;;5034944;28;20435;-65
2023/07/01 05:54:49;;;;;;;1.42;1.30;;;21.30;98.00;;;;;;5035048;28;20486;-66
2023/07/01 05:57:14;;;;;;;1.38;1.27;;;21.30;97.90;;;;;;5034813;28;20091;-63
2023/07/01 05:59:40;;;;;;;1.75;1.35;;;21.30;98.00;;;;;;5033569;28;20013;-69
2023/07/01 06:02:07;;;;;;;3.58;1.67;;;21.30;98.20;;;;;;5034781;28;20048;-64
2023/07/01 06:04:33;;;;;;;2.03;1.50;;;21.30;98.20;;;;;;5028412;28;20025;-72
2023/07/01 06:06:58;;;;;;;2.13;0.80;;;21.30;98.20;;;;;;5028440;28;20021;-65
2023/07/01 06:09:24;;;;;;;2.15;0.60;;;21.30;96.80;;;;;;5026708;28;20366;-65
2023/07/01 06:11:49;;;;;;;1.88;0.82;;;21.40;96.50;;;;;;5025162;28;20057;-66
2023/07/01 06:14:15;;;;;;;2.42;0.68;;;21.40;96.50;;;;;;5028837;28;20025;-66
2023/07/01 06:16:40;;;;;;;2.17;0.75;;;21.50;96.40;;;;;;5032572;28;20048;-66
2023/07/01 06:19:06;;;;;;;1.60;0.60;;;21.40;96.30;;;;;;5031510;28;20026;-69
2023/07/01 06:21:32;;;;;;;1.50;0.52;;;21.50;96.20;;;;;;5033251;28;20032;-66
2023/07/01 06:23:57;;;;;;;2.05;0.65;;;21.50;96.20;;;;;;5031073;28;20018;-67
2023/07/01 06:26:23;;;;;;;1.40;0.65;;;21.50;96.00;;;;;;5032466;28;20513;-66
2023/07/01 06:28:48;;;;;;;2.40;1.00;;;21.50;96.10;;;;;;5031156;28;20511;-68
2023/07/01 06:31:14;;;;;;;3.63;1.00;;;21.60;96.20;;;;;;5031506;28;20076;-80
2023/07/01 06:33:40;;;;;;;0.68;0.43;;;21.60;97.00;;;;;;5032224;28;20029;-75
2023/07/01 06:36:06;;;;;;;3.30;0.40;;;21.60;96.60;;;;;;5030079;28;20025;-74
2023/07/01 06:38:32;;;;;;;1.85;0.43;;;21.60;96.30;;;;;;5025816;28;20017;-76
2023/07/01 06:40:57;;;;;;;0.80;0.30;;;21.70;96.00;;;;;;5029785;28;20041;-71
2023/07/01 06:43:23;;;;;;;0.90;0.45;;;21.80;95.90;;;;;;5030706;28;20490;-71
2023/07/01 06:45:48;;;;;;;1.70;0.50;;;21.80;95.70;;;;;;5022361;28;20415;-72
2023/07/01 06:48:14;;;;;;;2.13;0.55;;;21.80;95.60;;;;;;5018831;28;20076;-72
2023/07/01 06:50:39;;;;;;;1.95;0.40;;;21.90;95.60;;;;;;5025122;28;20096;-71
2023/07/01 06:53:06;;;;;;;0.75;0.10;;;21.80;95.40;;;;;;5032688;28;20030;-77
2023/07/01 06:55:31;;;;;;;1.80;0.50;;;21.90;95.30;;;;;;5022500;28;20376;-71
2023/07/01 06:57:59;;;;;;;0.77;0.50;;;21.90;95.30;;;;;;5031595;28;20037;-80
2023/07/01 07:00:24;;;;;;;0.93;0.52;;;21.90;95.20;;;;;;5025522;28;20030;-80
2023/07/01 07:02:50;;;;;;;1.45;0.30;;;21.90;95.10;;;;;;5030156;28;20045;-79
2023/07/01 07:05:16;;;;;;;1.35;0.30;;;21.90;95.00;;;;;;5023769;28;20402;-80
2023/07/01 07:07:41;;;;;;;1.88;0.57;;;21.90;95.10;;;;;;5016958;28;20088;-78
2023/07/01 07:10:07;;;;;;;1.27;0.32;;;21.90;95.10;;;;;;5028402;28;20037;-70
2023/07/01 07:12:33;;;;;;;4.30;0.20;;;22.00;95.10;;;;;;5026018;28;20025;-80
2023/07/01 07:14:58;;;;;;;1.67;0.50;;;22.00;95.10;;;;;;5027419;28;20048;-76
2023/07/01 07:17:24;;;;;;;0.50;0.32;;;22.00;95.20;;;;;;5018972;28;20025;-79
2023/07/01 07:19:49;;;;;;;0.80;0.40;;;22.00;95.10;;;;;;5022414;28;20038;-78
2023/07/01 07:22:15;;;;;;;1.38;0.30;;;22.10;95.10;;;;;;5024556;28;20360;-80
2023/07/01 07:24:41;;;;;;;0.40;0.20;;;22.00;95.10;;;;;;5032275;28;20402;-76
2023/07/01 07:27:07;;;;;;;1.77;0.50;;;22.10;95.10;;;;;;5032519;28;20061;-72
2023/07/01 07:29:35;;;;;;;1.33;0.30;;;22.10;95.10;;;;;;5032257;28;20048;-71
2023/07/01 07:32:02;;;;;;;2.15;0.50;;;22.10;95.10;;;;;;5030811;28;20017;-71
2023/07/01 07:34:28;;;;;;;2.97;0.50;;;22.10;95.10;;;;;;5017472;28;20364;-70
2023/07/01 07:36:54;;;;;;;1.50;0.60;;;22.10;95.10;;;;;;5030756;28;20037;-70
2023/07/01 07:39:19;;;;;;;1.15;0.60;;;22.10;95.30;;;;;;5032911;28;20026;-72
2023/07/01 07:41:45;;;;;;;2.45;0.50;;;22.10;95.40;;;;;;5031521;28;20116;-75
2023/07/01 07:44:11;;;;;;;1.38;0.55;;;22.10;95.80;;;;;;5027956;28;20382;-76
2023/07/01 07:46:42;;;;;;;1.70;0.50;;;22.00;95.80;;;;;;5032496;28;20478;-77
2023/07/01 07:49:07;;;;;;;1.25;0.70;;;21.90;96.30;;;;;;5021644;28;20072;-67
2023/07/01 07:51:33;;;;;;;1.45;0.47;;;21.90;96.80;;;;;;5026125;28;20450;-75
2023/07/01 07:53:59;;;;;;;1.88;0.50;;;21.80;96.70;;;;;;5020963;28;20030;-76
2023/07/01 07:56:25;;;;;;;0.75;0.57;;;21.80;96.90;;;;;;5024590;28;20042;-76
2023/07/01 07:58:50;;;;;;;1.00;0.90;;;21.80;97.00;;;;;;5011892;28;20038;-75
2023/07/01 08:01:16;;;;;;;1.15;0.77;;;21.80;97.10;;;;;;5019019;28;20363;-67
2023/07/01 08:03:42;;;;;;;1.83;0.90;;;21.70;97.10;;;;;;5019850;28;20474;-67
2023/07/01 08:06:07;;;;;;;1.10;0.57;;;21.70;97.30;;;;;;5033021;28;20032;-76
2023/07/01 08:08:34;;;;;;;0.90;0.80;;;21.80;97.40;;;;;;5030539;28;20429;-76
2023/07/01 08:11:00;;;;;;;1.27;1.00;;;21.70;97.50;;;;;;5041820;28;20044;-76
2023/07/01 08:13:25;;;;;;;0.98;0.85;;;21.70;97.60;;;;;;5038744;28;20386;-76
2023/07/01 08:15:51;;;;;;;2.38;0.88;;;21.70;97.90;;;;;;5032778;28;20025;-77
2023/07/01 08:18:17;;;;;;;1.00;0.70;;;21.70;97.80;;;;;;5033067;28;20040;-76
2023/07/01 08:20:46;;;;;;;1.77;0.90;;;21.70;97.80;;;;;;5036742;28;20056;-78
2023/07/01 08:23:15;;;;;;;1.67;0.60;;;21.70;97.80;;;;;;5034501;28;20474;-77
2023/07/01 08:25:41;;;;;;;0.88;0.38;;;21.70;97.50;;;;;;5035666;28;20395;-81
2023/07/01 08:28:07;;;;;;;0.60;0.60;;;21.70;97.60;;;;;;5036620;28;20045;-76
2023/07/01 08:30:33;;;;;;;0.98;0.60;;;21.80;97.50;;;;;;5031306;28;20073;-76
2023/07/01 08:32:58;;;;;;;3.03;0.80;;;21.70;97.50;;;;;;5035737;28;20083;-76
2023/07/01 08:35:24;;;;;;;1.08;0.50;;;21.70;97.50;;;;;;5028140;28;20034;-69
2023/07/01 08:37:49;;;;;;;2.15;0.70;;;21.70;97.80;;;;;;5029015;28;20410;-74
2023/07/01 08:40:15;;;;;;;1.35;0.50;;;21.70;97.80;;;;;;5021251;28;20105;-67
2023/07/01 08:42:50;;;;;;;3.90;0.60;;;21.70;98.30;;;;;;5019830;28;20033;-80
2023/07/01 08:45:20;;;;;;;2.92;0.85;;;21.70;98.20;;;;;;5025321;28;20026;-75
2023/07/01 08:47:47;;;;;;;1.33;0.30;;;21.70;98.50;;;;;;5026674;28;20033;-78
2023/07/01 08:50:21;;;;;;;2.40;0.47;;;21.70;98.30;;;;;;5026689;28;20037;-76
2023/07/01 08:52:52;;;;;;;0.55;0.30;;;21.70;98.50;;;;;;5021158;28;20075;-78
2023/07/01 08:55:17;;;;;;;1.13;0.30;;;21.70;98.40;;;;;;5023529;28;20080;-78
2023/07/01 08:57:43;;;;;;;1.02;0.28;;;21.70;98.60;;;;;;5026844;28;20041;-68
2023/07/01 09:00:12;;;;;;;1.27;0.45;;;21.70;98.60;;;;;;5029028;28;20523;-66
2023/07/01 09:02:38;;;;;;;0.45;0.20;;;21.70;98.50;;;;;;5019935;28;20487;-75
2023/07/01 09:05:04;;;;;;;1.25;0.35;;;21.70;98.60;;;;;;5020427;28;20022;-71
2023/07/01 09:07:30;;;;;;;3.58;0.35;;;21.70;98.60;;;;;;5023805;28;20079;-73
2023/07/01 09:10:03;;;;;;;1.90;0.50;;;21.70;98.80;;;;;;5019632;28;20586;-75
2023/07/01 09:12:29;;;;;;;2.53;0.45;;;21.70;98.70;;;;;;5018773;28;20398;-79
2023/07/01 09:15:02;;;;;;;5.60;0.50;;;21.80;98.80;;;;;;5020107;28;20097;-72
2023/07/01 09:17:38;;;;;;;4.55;0.30;;;21.80;98.80;;;;;;5027134;28;20073;-77
2023/07/01 09:20:06;;;;;;;1.85;0.40;;;21.80;98.80;;;;;;5024768;28;20103;-71
2023/07/01 09:22:33;;;;;;;3.65;0.30;;;21.70;98.80;;;;;;5020294;28;20472;-77
2023/07/01 09:24:59;;;;;;;1.70;0.40;;;21.70;98.70;;;;;;5030577;28;20029;-78
2023/07/01 09:27:38;;;;;;;2.15;0.50;;;21.70;99.20;;;;;;5022574;28;20026;-68
2023/07/01 09:30:20;;;;;;;3.92;0.50;;;21.80;99.30;;;;;;5019239;28;20398;-69
2023/07/01 09:32:46;;;;;;;3.10;0.77;;;21.80;99.40;;;;;;5016204;28;20034;-67
2023/07/01 09:35:12;;;;;;;1.77;0.80;;;21.80;99.40;;;;;;5017990;28;20042;-68
2023/07/01 09:37:38;;;;;;;2.85;0.70;;;21.80;99.30;;;;;;5023724;28;20437;-73
2023/07/01 09:40:25;;;;;;;1.00;0.40;;;21.80;99.80;;;;;;5033150;28;20116;-73
2023/07/01 09:42:52;;;;;;;0.95;0.70;;;21.80;99.20;;;;;;5027960;28;20029;-73
2023/07/01 09:45:18;;;;;;;1.20;0.52;;;21.80;99.50;;;;;;5024779;28;20041;-76
2023/07/01 09:47:43;;;;;;;1.90;0.57;;;21.80;99.40;;;;;;5020706;28;20030;-75
2023/07/01 09:50:21;;;;;;;2.97;0.80;;;21.80;99.20;;;;;;5042967;28;20128;-73
2023/07/01 09:52:48;;;;;;;2.90;0.85;;;21.80;99.20;;;;;;5014416;28;20025;-75
2023/07/01 09:55:14;;;;;;;2.47;1.00;;;21.90;99.30;;;;;;5029571;28;20030;-74
2023/07/01 09:57:40;;;;;;;1.52;0.90;;;21.80;99.20;;;;;;5025540;28;20041;-70
2023/07/01 10:00:07;;;;;;;3.25;0.93;;;21.80;99.10;;;;;;5020422;28;20497;-74
2023/07/01 10:02:33;;;;;;;3.25;1.52;;;21.90;99.20;;;;;;5018482;28;20052;-72
2023/07/01 10:05:01;;;;;;;2.95;1.42;;;21.90;99.60;;;;;;5033342;28;20017;-75
2023/07/01 10:07:27;;;;;;;0.95;0.60;;;21.90;99.70;;;;;;5031990;28;20116;-76
2023/07/01 10:09:53;;;;;;;3.13;0.82;;;21.90;99.40;;;;;;5032396;28;20101;-69
2023/07/01 10:12:20;;;;;;;1.38;0.82;;;21.90;99.20;;;;;;5027954;28;20038;-76
2023/07/01 10:14:51;;;;;;;1.83;1.00;;;21.90;99.40;;;;;;5021123;28;20032;-72
2023/07/01 10:17:18;;;;;;;3.13;1.10;;;21.90;99.30;;;;;;5020421;28;20041;-72
2023/07/01 10:19:46;;;;;;;1.08;0.80;;;21.90;99.40;;;;;;5026156;28;20457;-69
2023/07/01 10:22:29;;;;;;;1.92;1.50;;;21.90;99.20;;;;;;5014226;28;20037;-69
2023/07/01 10:24:55;;;;;;;3.40;1.35;;;22.00;99.10;;;;;;5020875;28;20097;-77
2023/07/01 10:27:40;;;;;;;2.58;1.45;;;21.90;99.10;;;;;;5029988;28;20409;-76
2023/07/01 10:30:06;;;;;;;1.65;1.13;;;22.00;99.10;;;;;;5021116;28;20022;-82
2023/07/01 10:32:32;;;;;;;2.40;1.33;;;22.00;99.30;;;;;;5037017;28;20057;-77
2023/07/01 10:34:58;;;;;;;2.55;1.48;;;22.00;99.40;;;;;;5025829;28;20486;-67
2023/07/01 10:37:26;;;;;;;4.25;1.20;;;22.00;99.10;;;;;;5022945;28;20501;-77
2023/07/01 10:39:53;;;;;;;2.92;2.08;;;22.00;99.20;;;;;;5028272;28;20079;-69
2023/07/01 10:42:32;;;;;;;8.15;1.98;;;22.00;99.70;;;;;;5025736;28;20056;-67
2023/07/01 10:45:13;;;;;;;7.35;1.90;;;22.10;99.60;;;;;;5022446;28;20025;-66
2023/07/01 10:47:59;;;;;;;4.05;2.70;;;22.10;99.40;;;;;;5025583;28;20450;-64
2023/07/01 10:50:25;;;;;;;5.43;2.03;;;22.10;99.90;;;;;;5010832;28;20367;-68
2023/07/01 10:52:57;;;;;;;3.10;1.60;;;22.10;99.90;;;;;;5019662;28;20075;-64
2023/07/01 10:55:44;;;;;;;8.75;3.80;;;22.10;99.70;;;;;;5018251;28;20095;-73
2023/07/01 10:58:23;;;;;;;13.93;9.70;;;22.10;99.70;;;;;;5015412;28;20164;-66
2023/07/01 11:00:53;;;;;;;37.38;25.33;;;22.10;99.90;;;;;;5022727;28;20017;-73
2023/07/01 11:03:34;;;;;;;62.22;45.70;;;22.20;99.90;;;;;;5017169;28;20029;-67
2023/07/01 11:06:04;;;;;;;60.25;47.85;;;22.20;99.90;;;;;;5018746;28;20112;-72
2023/07/01 11:08:32;;;;;;;63.10;49.90;;;22.20;99.90;;;;;;5020663;28;20112;-71
2023/07/01 11:10:58;;;;;;;59.50;50.15;;;22.20;99.90;;;;;;5024231;28;20595;-64
2023/07/01 11:13:25;;;;;;;59.70;47.53;;;22.20;99.90;;;;;;5022882;28;20753;-63
2023/07/01 11:16:05;;;;;;;50.50;41.03;;;22.30;99.90;;;;;;5020435;28;20021;-65
2023/07/01 11:18:43;;;;;;;49.83;39.95;;;22.30;99.90;;;;;;5020731;28;20113;-64
2023/07/01 11:21:10;;;;;;;41.28;34.15;;;22.30;99.90;;;;;;5027182;28;20043;-65
2023/07/01 11:23:37;;;;;;;35.47;29.83;;;22.30;99.90;;;;;;5017838;28;20030;-63
2023/07/01 11:26:03;;;;;;;29.27;23.90;;;22.30;99.90;;;;;;5015258;28;20037;-65
2023/07/01 11:28:35;;;;;;;29.05;24.60;;;22.30;99.90;;;;;;5011981;28;20111;-65
2023/07/01 11:31:21;;;;;;;27.75;21.02;;;22.30;99.90;;;;;;5027436;28;20379;-67
2023/07/01 11:33:48;;;;;;;19.17;16.50;;;22.40;99.90;;;;;;5021482;28;20353;-62
2023/07/01 11:36:16;;;;;;;22.33;17.92;;;22.40;99.90;;;;;;5015913;28;20038;-63
2023/07/01 11:38:46;;;;;;;17.95;14.90;;;22.40;99.90;;;;;;5017840;28;20036;-65
2023/07/01 11:41:15;;;;;;;15.77;13.50;;;22.40;99.90;;;;;;5020976;28;20149;-66
2023/07/01 11:43:40;;;;;;;15.27;11.93;;;22.40;99.90;;;;;;5017498;28;20029;-65
2023/07/01 11:46:06;;;;;;;16.52;13.20;;;22.40;99.90;;;;;;5024730;28;20032;-70
2023/07/01 11:48:32;;;;;;;15.40;12.10;;;22.40;99.90;;;;;;5017983;28;20018;-65
2023/07/01 11:50:58;;;;;;;12.20;9.55;;;22.40;99.90;;;;;;5020069;28;20029;-69
2023/07/01 11:53:26;;;;;;;15.02;11.43;;;22.40;99.90;;;;;;5016044;28;20313;-68
2023/07/01 11:55:52;;;;;;;11.25;9.73;;;22.50;99.90;;;;;;5017441;28;20026;-67
2023/07/01 11:58:48;;;;;;;12.23;10.05;;;22.50;99.90;;;;;;5041384;28;20029;-68
2023/07/01 12:01:27;;;;;;;11.48;9.30;;;22.50;99.50;;;;;;5003549;28;20482;-71
2023/07/01 12:03:53;;;;;;;11.65;9.40;;;22.50;99.80;;;;;;5020373;28;20030;-71
2023/07/01 12:06:25;;;;;;;11.50;8.77;;;22.50;99.70;;;;;;5025083;28;20025;-68
2023/07/01 12:08:57;;;;;;;11.18;9.45;;;22.50;99.70;;;;;;5028105;28;20033;-68
2023/07/01 12:11:24;;;;;;;9.90;8.48;;;22.60;99.70;;;;;;5021454;28;20101;-65
2023/07/01 12:13:53;;;;;;;9.40;8.40;;;22.60;99.80;;;;;;5021895;28;20465;-66
2023/07/01 12:16:19;;;;;;;10.63;7.72;;;22.60;99.60;;;;;;5011587;28;20409;-71
2023/07/01 12:18:46;;;;;;;10.10;6.78;;;22.50;99.30;;;;;;5017277;28;20025;-65
2023/07/01 12:21:12;;;;;;;8.02;7.13;;;22.60;99.40;;;;;;5024567;28;20088;-66
2023/07/01 12:23:43;;;;;;;8.20;6.30;;;22.60;99.50;;;;;;5019074;28;20037;-69
2023/07/01 12:26:12;;;;;;;8.52;6.63;;;22.60;99.40;;;;;;5016990;28;20026;-69
2023/07/01 12:28:39;;;;;;;8.27;6.32;;;22.60;99.30;;;;;;5015828;28;20026;-65
2023/07/01 12:31:06;;;;;;;6.90;5.93;;;22.60;99.20;;;;;;5027304;28;20026;-66
2023/07/01 12:33:34;;;;;;;6.72;5.53;;;22.60;99.30;;;;;;5022760;28;20036;-66
2023/07/01 12:36:06;;;;;;;9.27;6.35;;;22.60;99.20;;;;;;5023815;28;20018;-71
2023/07/01 12:38:33;;;;;;;7.80;5.82;;;22.60;99.20;;;;;;5020915;28;20053;-66
2023/07/01 12:41:01;;;;;;;8.02;5.32;;;22.60;99.20;;;;;;5024270;28;20025;-68
2023/07/01 12:43:27;;;;;;;8.75;5.68;;;22.60;99.10;;;;;;5023429;28;20551;-65
2023/07/01 12:45:53;;;;;;;6.78;5.13;;;22.60;99.00;;;;;;5014114;28;20025;-64
2023/07/01 12:48:21;;;;;;;10.40;4.95;;;22.60;99.10;;;;;;5017290;28;20036;-66